Time;durP1;ratioP1;P1;durP2;ratioP2;P2;SDS_P1;SDS_P2;PMS_P1;PMS_P2;Temp;Humidity;BMP_temperature;BMP_pressure;BME280_temperature;BME280_humidity;BME280_pressure;Samples;Min_cycle;Max_cycle;Signal;HPM_P1;HPM_P2
2022/07/20 00:01:16;;;;;;;6.10;3.95;;;15.80;90.70;;;;;;5109234;28;20035;-83
2022/07/20 00:03:45;;;;;;;4.85;2.88;;;15.80;90.70;;;;;;5106892;28;20004;-85
2022/07/20 00:06:12;;;;;;;8.90;2.60;;;15.80;90.50;;;;;;5115250;28;20065;-87
2022/07/20 00:11:22;;;;;;;5.20;3.17;;;15.80;90.30;;;;;;5093442;28;20531;-85
2022/07/20 00:13:55;;;;;;;7.35;2.83;;;15.70;90.40;;;;;;5093821;28;20071;-85
2022/07/20 00:16:23;;;;;;;7.88;2.85;;;15.70;90.40;;;;;;5092533;28;20032;-85
2022/07/20 00:18:49;;;;;;;9.80;2.75;;;15.60;90.40;;;;;;5084264;28;20032;-88
2022/07/20 00:21:16;;;;;;;5.65;2.85;;;15.60;90.40;;;;;;5072057;28;20040;-86
2022/07/20 00:23:42;;;;;;;3.63;2.25;;;15.50;90.30;;;;;;5095424;28;20044;-91
2022/07/20 00:26:08;;;;;;;3.90;2.28;;;15.50;90.10;;;;;;5095930;28;20039;-88
2022/07/20 00:28:34;;;;;;;6.50;3.20;;;15.50;90.00;;;;;;5098119;28;20009;-89
2022/07/20 00:31:00;;;;;;;4.47;2.20;;;15.50;89.90;;;;;;5085474;28;20028;-87
2022/07/20 00:33:26;;;;;;;6.40;2.95;;;15.50;89.90;;;;;;5090914;28;20028;-88
2022/07/20 00:35:52;;;;;;;5.10;3.03;;;15.40;90.00;;;;;;5082313;28;20401;-88
2022/07/20 00:38:18;;;;;;;6.90;2.55;;;15.40;90.00;;;;;;5093818;28;20020;-88
2022/07/20 00:40:44;;;;;;;3.65;2.25;;;15.40;90.00;;;;;;5091794;28;20032;-86
2022/07/20 00:43:10;;;;;;;6.18;2.40;;;15.40;89.90;;;;;;5080092;28;20111;-86
2022/07/20 00:45:36;;;;;;;7.93;3.15;;;15.40;89.60;;;;;;5072567;28;20124;-87
2022/07/20 00:48:02;;;;;;;5.53;2.50;;;15.30;89.70;;;;;;5072303;28;20021;-86
2022/07/20 00:50:28;;;;;;;3.55;2.25;;;15.30;89.90;;;;;;5083501;28;20505;-86
2022/07/20 00:52:54;;;;;;;7.05;2.40;;;15.30;89.90;;;;;;5071511;28;20040;-87
2022/07/20 00:55:21;;;;;;;5.32;2.50;;;15.30;90.00;;;;;;5077193;28;20035;-87
2022/07/20 00:57:47;;;;;;;3.93;3.00;;;15.20;89.90;;;;;;5077379;28;20020;-86
2022/07/20 01:00:13;;;;;;;6.75;3.15;;;15.20;90.00;;;;;;5083511;28;20031;-86
2022/07/20 01:02:40;;;;;;;6.28;2.45;;;15.20;90.10;;;;;;5073645;28;20115;-86
2022/07/20 01:05:13;;;;;;;5.03;2.58;;;15.20;90.20;;;;;;5072039;28;20486;-85
2022/07/20 01:07:43;;;;;;;6.20;2.20;;;15.10;90.20;;;;;;5075846;28;20013;-86
2022/07/20 01:10:10;;;;;;;6.85;2.25;;;15.10;90.30;;;;;;5082204;28;20122;-85
2022/07/20 01:12:38;;;;;;;6.53;2.47;;;15.10;90.50;;;;;;5076427;28;20130;-85
2022/07/20 01:15:06;;;;;;;2.75;2.20;;;15.10;90.50;;;;;;5085716;28;20086;-86
2022/07/20 01:17:31;;;;;;;;;;;15.00;90.60;;;;;;5076951;28;20024;-86
2022/07/20 01:19:57;;;;;;;2.42;2.10;;;15.00;90.30;;;;;;5084505;28;19908;-86
2022/07/20 01:22:23;;;;;;;2.10;1.90;;;15.00;90.60;;;;;;5086361;28;20029;-86
2022/07/20 01:24:49;;;;;;;4.28;2.22;;;15.00;90.70;;;;;;5093037;28;20043;-84
2022/07/20 01:27:15;;;;;;;4.85;2.10;;;14.90;90.80;;;;;;5083257;28;20118;-86
2022/07/20 01:29:41;;;;;;;2.92;2.28;;;15.00;90.80;;;;;;5079379;28;20028;-87
2022/07/20 01:32:06;;;;;;;5.22;2.42;;;15.00;90.80;;;;;;5077921;28;20017;-86
2022/07/20 01:34:32;;;;;;;4.82;2.47;;;15.00;90.90;;;;;;5080634;28;20039;-85
2022/07/20 01:36:59;;;;;;;3.53;2.40;;;15.00;90.90;;;;;;5090456;28;20042;-87
2022/07/20 01:39:25;;;;;;;4.97;2.80;;;15.00;90.80;;;;;;5097952;28;20020;-85
2022/07/20 01:41:53;;;;;;;3.67;2.55;;;15.00;90.80;;;;;;5091297;28;20077;-85
2022/07/20 01:44:22;;;;;;;4.75;2.67;;;15.00;90.80;;;;;;5099980;28;20337;-86
2022/07/20 01:46:49;;;;;;;7.88;2.70;;;15.00;90.80;;;;;;5085286;28;20511;-87
2022/07/20 01:49:16;;;;;;;3.72;2.13;;;15.00;90.90;;;;;;5087346;28;20034;-85
2022/07/20 01:51:42;;;;;;;3.78;2.28;;;15.10;90.80;;;;;;5082251;28;20090;-86
2022/07/20 01:54:09;;;;;;;3.75;1.92;;;15.10;90.80;;;;;;5085339;28;20044;-86
2022/07/20 01:56:34;;;;;;;5.65;2.45;;;15.20;90.80;;;;;;5089406;28;20031;-86
2022/07/20 01:59:00;;;;;;;4.60;2.80;;;15.10;90.80;;;;;;5092443;28;20016;-86
2022/07/20 02:01:27;;;;;;;4.05;2.15;;;15.10;90.80;;;;;;5083961;28;20028;-86
2022/07/20 02:03:53;;;;;;;4.35;2.20;;;15.10;90.80;;;;;;5082670;28;20019;-84
2022/07/20 02:06:19;;;;;;;4.40;2.25;;;15.10;90.90;;;;;;5085940;28;20024;-86
2022/07/20 02:08:45;;;;;;;4.60;1.98;;;15.20;90.90;;;;;;5081212;28;20020;-86
2022/07/20 02:11:11;;;;;;;6.90;2.08;;;15.10;90.80;;;;;;5087265;28;20048;-87
2022/07/20 02:13:37;;;;;;;4.60;2.40;;;15.20;90.90;;;;;;5078912;28;20029;-86
2022/07/20 02:16:16;;;;;;;3.25;2.00;;;15.20;90.90;;;;;;5088923;28;20079;-86
2022/07/20 02:18:53;;;;;;;6.45;2.55;;;15.10;91.00;;;;;;5085245;28;20417;-87
2022/07/20 02:21:20;;;;;;;4.25;2.05;;;15.20;91.10;;;;;;5073472;28;20028;-85
2022/07/20 02:23:47;;;;;;;6.93;2.20;;;15.30;91.10;;;;;;5074631;28;20054;-85
2022/07/20 02:26:13;;;;;;;4.03;1.98;;;15.30;90.90;;;;;;5074542;28;20481;-86
2022/07/20 02:28:40;;;;;;;6.00;2.58;;;15.50;90.80;;;;;;5074603;28;20036;-86
2022/07/20 02:31:06;;;;;;;4.72;1.88;;;15.60;90.70;;;;;;5074098;28;20078;-86
2022/07/20 02:33:32;;;;;;;4.57;2.13;;;15.70;90.50;;;;;;5092121;28;20027;-86
2022/07/20 02:35:58;;;;;;;2.83;2.20;;;15.90;90.30;;;;;;5082664;28;20497;-86
2022/07/20 02:38:25;;;;;;;7.00;2.72;;;15.90;90.10;;;;;;5080201;28;20024;-85
2022/07/20 02:40:51;;;;;;;2.03;1.83;;;16.00;89.70;;;;;;5084086;28;20556;-86
2022/07/20 02:43:17;;;;;;;4.63;2.40;;;16.10;89.50;;;;;;5072368;28;20024;-86
2022/07/20 02:45:43;;;;;;;4.60;2.30;;;16.10;89.20;;;;;;5074346;28;20104;-84
2022/07/20 02:48:09;;;;;;;4.53;2.53;;;16.20;89.30;;;;;;5080861;28;20143;-83
2022/07/20 02:50:38;;;;;;;4.90;2.40;;;16.20;89.00;;;;;;5079353;28;20539;-84
2022/07/20 02:53:05;;;;;;;3.35;2.03;;;16.30;89.10;;;;;;5081361;28;20028;-84
2022/07/20 02:55:31;;;;;;;4.40;2.15;;;16.60;88.90;;;;;;5086033;28;20012;-83
2022/07/20 02:57:58;;;;;;;4.22;2.42;;;16.80;88.10;;;;;;5073811;28;20076;-84
2022/07/20 03:00:24;;;;;;;4.38;1.90;;;17.00;87.50;;;;;;5073599;28;20020;-86
2022/07/20 03:02:51;;;;;;;3.20;1.98;;;17.10;86.70;;;;;;5073220;28;20032;-84
2022/07/20 03:05:18;;;;;;;2.10;1.70;;;17.10;86.30;;;;;;5075347;28;20051;-85
2022/07/20 03:07:44;;;;;;;6.25;2.67;;;17.00;86.50;;;;;;5073747;28;20107;-85
2022/07/20 03:10:10;;;;;;;4.55;2.30;;;17.00;86.80;;;;;;5073889;28;20036;-84
2022/07/20 03:12:37;;;;;;;6.15;2.30;;;17.10;87.10;;;;;;5074378;28;20040;-85
2022/07/20 03:15:04;;;;;;;2.05;1.75;;;17.20;86.70;;;;;;5093386;28;20028;-84
2022/07/20 03:17:30;;;;;;;;;;;17.20;86.30;;;;;;5079743;28;20020;-84
2022/07/20 03:19:56;;;;;;;3.45;2.10;;;17.20;86.20;;;;;;5093143;28;19930;-84
2022/07/20 03:22:22;;;;;;;5.35;2.13;;;17.10;87.00;;;;;;5080424;28;20040;-85
2022/07/20 03:24:48;;;;;;;6.40;2.30;;;17.10;87.00;;;;;;5090636;28;20491;-84
2022/07/20 03:27:14;;;;;;;5.28;1.90;;;17.10;87.20;;;;;;5072693;28;20051;-84
2022/07/20 03:29:41;;;;;;;3.70;2.15;;;17.10;87.60;;;;;;5087058;28;20428;-85
2022/07/20 03:32:07;;;;;;;6.20;2.50;;;17.20;87.60;;;;;;5071544;28;20058;-84
2022/07/20 03:34:32;;;;;;;2.70;1.80;;;17.20;87.60;;;;;;5087109;28;20408;-85
2022/07/20 03:36:58;;;;;;;6.38;2.00;;;17.20;87.60;;;;;;5086929;28;20028;-84
2022/07/20 03:39:25;;;;;;;3.35;2.17;;;17.30;87.70;;;;;;5084485;28;20020;-85
2022/07/20 03:41:50;;;;;;;4.10;2.00;;;17.40;87.50;;;;;;5080175;28;20024;-84
2022/07/20 03:44:16;;;;;;;5.80;1.98;;;17.40;87.50;;;;;;5094868;28;20027;-85
2022/07/20 03:46:42;;;;;;;3.78;2.22;;;17.20;88.20;;;;;;5078489;28;20020;-86
2022/07/20 03:49:08;;;;;;;6.25;2.67;;;17.20;88.80;;;;;;5081331;28;20023;-85
2022/07/20 03:51:33;;;;;;;5.20;2.47;;;17.20;88.90;;;;;;5079088;28;20382;-85
2022/07/20 03:53:59;;;;;;;8.02;2.88;;;17.20;88.90;;;;;;5072456;28;20024;-85
2022/07/20 03:56:25;;;;;;;7.10;2.55;;;17.10;89.30;;;;;;5088352;28;20031;-86
2022/07/20 03:58:51;;;;;;;7.55;2.20;;;17.00;90.00;;;;;;5078589;28;20020;-85
2022/07/20 04:01:17;;;;;;;4.20;2.50;;;17.00;90.10;;;;;;5092788;28;20054;-84
2022/07/20 04:03:42;;;;;;;4.13;2.13;;;17.00;90.20;;;;;;5076620;28;20016;-84
2022/07/20 04:06:08;;;;;;;4.28;2.03;;;16.90;90.30;;;;;;5072485;28;20021;-85
2022/07/20 04:08:34;;;;;;;6.53;2.28;;;16.90;90.50;;;;;;5086759;28;20028;-83
2022/07/20 04:11:00;;;;;;;16.10;3.28;;;16.90;90.60;;;;;;5085846;28;20135;-84
2022/07/20 04:13:25;;;;;;;6.15;2.47;;;16.90;90.70;;;;;;5083228;28;20491;-85
2022/07/20 04:15:51;;;;;;;5.55;2.70;;;16.70;91.20;;;;;;5092810;28;20020;-85
2022/07/20 04:18:17;;;;;;;3.65;2.25;;;16.60;91.40;;;;;;5091448;28;20049;-84
2022/07/20 04:20:43;;;;;;;3.33;2.35;;;16.50;92.00;;;;;;5092333;28;20499;-84
2022/07/20 04:23:11;;;;;;;4.82;2.72;;;16.40;92.60;;;;;;5088298;28;20030;-85
2022/07/20 04:25:37;;;;;;;4.88;2.60;;;16.50;92.80;;;;;;5082953;28;20034;-84
2022/07/20 04:28:03;;;;;;;3.50;2.17;;;16.40;92.80;;;;;;5078097;28;20112;-84
2022/07/20 04:30:29;;;;;;;4.95;2.65;;;16.40;92.80;;;;;;5092926;28;20091;-86
2022/07/20 04:32:55;;;;;;;3.72;2.92;;;16.30;93.10;;;;;;5093937;28;20450;-85
2022/07/20 04:35:20;;;;;;;4.68;3.15;;;16.30;93.40;;;;;;5087460;28;20048;-84
2022/07/20 04:37:46;;;;;;;4.35;2.40;;;16.40;93.60;;;;;;5097760;28;20404;-84
2022/07/20 04:40:12;;;;;;;3.35;2.58;;;16.40;93.60;;;;;;5095157;28;20004;-83
2022/07/20 04:42:38;;;;;;;5.07;2.80;;;16.40;93.60;;;;;;5099386;28;20064;-84
2022/07/20 04:45:04;;;;;;;4.70;2.58;;;16.40;93.80;;;;;;5077233;28;20051;-83
2022/07/20 04:47:30;;;;;;;6.28;2.60;;;16.30;93.90;;;;;;5081862;28;20024;-84
2022/07/20 04:49:56;;;;;;;6.00;2.55;;;16.40;94.00;;;;;;5087724;28;20422;-85
2022/07/20 04:52:22;;;;;;;3.88;2.90;;;16.40;94.00;;;;;;5084752;28;20024;-84
2022/07/20 04:54:47;;;;;;;3.70;2.70;;;16.40;94.00;;;;;;5083583;28;20488;-85
2022/07/20 04:57:13;;;;;;;5.75;3.08;;;16.50;94.00;;;;;;5077248;28;20674;-85
2022/07/20 04:59:39;;;;;;;4.45;2.70;;;16.60;94.00;;;;;;5075752;28;20389;-83
2022/07/20 05:02:05;;;;;;;5.47;2.80;;;16.80;93.70;;;;;;5075444;28;20115;-86
2022/07/20 05:04:31;;;;;;;8.90;3.35;;;16.90;93.20;;;;;;5076096;28;20124;-85
2022/07/20 05:06:56;;;;;;;4.47;3.10;;;16.90;93.20;;;;;;5079896;28;20261;-85
2022/07/20 05:09:22;;;;;;;4.68;2.80;;;16.90;93.40;;;;;;5076362;28;20535;-85
2022/07/20 05:11:48;;;;;;;6.93;2.92;;;16.90;93.40;;;;;;5075584;28;20048;-85
2022/07/20 05:14:14;;;;;;;4.57;2.72;;;16.80;93.40;;;;;;5090307;28;20500;-85
2022/07/20 05:16:40;;;;;;;6.82;2.85;;;16.70;93.40;;;;;;5076267;28;20056;-83
2022/07/20 05:19:05;;;;;;;9.90;3.50;;;16.60;93.90;;;;;;5087927;28;20099;-83
2022/07/20 05:21:31;;;;;;;4.45;3.50;;;16.50;94.20;;;;;;5087122;28;20037;-84
2022/07/20 05:23:57;;;;;;;6.13;3.10;;;16.60;94.20;;;;;;5094984;28;20028;-82
2022/07/20 05:26:23;;;;;;;3.75;2.63;;;16.50;94.40;;;;;;5084624;28;20020;-83
2022/07/20 05:28:49;;;;;;;5.78;3.22;;;16.40;94.70;;;;;;5086289;28;20024;-83
2022/07/20 05:31:15;;;;;;;8.70;3.83;;;16.20;95.20;;;;;;5095128;28;20025;-82
2022/07/20 05:33:41;;;;;;;5.68;3.85;;;15.70;95.90;;;;;;5083838;28;20025;-83
2022/07/20 05:36:08;;;;;;;5.72;3.28;;;15.50;97.00;;;;;;5084870;28;20055;-83
2022/07/20 05:38:34;;;;;;;6.40;3.40;;;15.40;97.40;;;;;;5093903;28;20035;-82
2022/07/20 05:41:00;;;;;;;7.03;3.78;;;15.30;98.00;;;;;;5086952;28;20035;-83
2022/07/20 05:43:26;;;;;;;8.98;4.38;;;15.30;98.60;;;;;;5084354;28;20048;-83
2022/07/20 05:45:52;;;;;;;8.10;4.22;;;15.20;99.00;;;;;;5094874;28;20111;-82
2022/07/20 05:48:18;;;;;;;6.82;4.28;;;15.20;99.60;;;;;;5094407;28;20020;-82
2022/07/20 05:50:44;;;;;;;8.75;4.13;;;15.20;99.70;;;;;;5081447;28;20021;-82
2022/07/20 05:53:11;;;;;;;5.90;4.10;;;15.20;99.90;;;;;;5087638;28;20020;-85
2022/07/20 05:55:38;;;;;;;7.10;5.05;;;15.20;99.90;;;;;;5091163;28;20024;-85
2022/07/20 05:58:06;;;;;;;5.55;4.35;;;15.30;99.90;;;;;;5094893;28;20051;-84
2022/07/20 06:00:33;;;;;;;5.75;4.10;;;15.30;99.90;;;;;;5091621;28;20017;-85
2022/07/20 06:02:59;;;;;;;7.78;4.32;;;15.40;99.90;;;;;;5089150;28;20040;-83
2022/07/20 06:05:28;;;;;;;9.20;3.67;;;15.40;99.90;;;;;;5100147;28;20043;-84
2022/07/20 06:07:55;;;;;;;6.63;4.10;;;15.30;99.90;;;;;;5098460;28;20028;-84
2022/07/20 06:10:21;;;;;;;5.63;3.15;;;15.40;99.90;;;;;;5100167;28;20036;-84
2022/07/20 06:12:47;;;;;;;5.68;3.45;;;15.50;99.90;;;;;;5085955;28;20036;-84
2022/07/20 06:15:13;;;;;;;4.38;3.30;;;15.60;99.90;;;;;;5085923;28;20029;-85
2022/07/20 06:17:40;;;;;;;5.05;2.70;;;15.60;99.90;;;;;;5074153;28;20032;-85
2022/07/20 06:20:12;;;;;;;7.57;3.35;;;15.50;99.90;;;;;;5075083;28;20023;-86
2022/07/20 06:22:40;;;;;;;6.80;4.20;;;15.40;99.90;;;;;;5074620;28;20033;-85
2022/07/20 06:25:06;;;;;;;;;;;15.40;99.90;;;;;;5074992;28;20028;-85
2022/07/20 06:27:32;;;;;;;4.70;3.30;;;15.50;99.90;;;;;;5081725;28;20285;-84
2022/07/20 06:29:58;;;;;;;4.50;2.63;;;15.40;99.90;;;;;;5075733;28;20025;-85
2022/07/20 06:32:25;;;;;;;3.33;2.85;;;15.40;99.90;;;;;;5073697;28;20027;-84
2022/07/20 06:34:51;;;;;;;4.75;2.97;;;15.40;99.90;;;;;;5076262;28;20074;-84
2022/07/20 06:37:17;;;;;;;4.05;3.15;;;15.40;99.90;;;;;;5094547;28;20237;-84
2022/07/20 06:39:43;;;;;;;3.25;2.50;;;15.60;99.90;;;;;;5093500;28;20024;-85
2022/07/20 06:42:09;;;;;;;3.83;2.85;;;15.90;99.90;;;;;;5094036;28;20040;-84
2022/07/20 06:44:35;;;;;;;4.30;2.42;;;16.10;99.90;;;;;;5089498;28;20099;-85
2022/07/20 06:47:00;;;;;;;4.47;2.70;;;16.40;99.90;;;;;;5089665;28;20043;-85
2022/07/20 06:49:27;;;;;;;3.80;2.75;;;16.60;99.90;;;;;;5094457;28;20495;-84
2022/07/20 06:51:54;;;;;;;4.72;3.35;;;17.00;99.60;;;;;;5086731;28;20024;-85
2022/07/20 06:54:21;;;;;;;4.77;2.33;;;17.20;98.90;;;;;;5088633;28;20027;-84
2022/07/20 06:56:46;;;;;;;2.80;2.35;;;17.20;98.10;;;;;;5083698;28;20113;-83
2022/07/20 06:59:12;;;;;;;4.95;3.67;;;17.30;97.40;;;;;;5086295;28;20400;-83
2022/07/20 07:01:39;;;;;;;4.60;2.90;;;17.20;97.30;;;;;;5089972;28;20030;-83
2022/07/20 07:04:04;;;;;;;4.10;2.65;;;17.20;97.50;;;;;;5085717;28;20012;-84
2022/07/20 07:06:32;;;;;;;2.83;1.85;;;17.40;97.60;;;;;;5089030;28;20031;-83
2022/07/20 07:08:58;;;;;;;;;;;17.70;97.30;;;;;;5086440;28;20469;-84
2022/07/20 07:11:24;;;;;;;3.10;1.80;;;18.00;97.20;;;;;;5087614;28;19919;-83
2022/07/20 07:13:50;;;;;;;3.75;2.05;;;18.20;96.20;;;;;;5093282;28;20485;-83
2022/07/20 07:16:16;;;;;;;3.78;2.40;;;18.30;95.50;;;;;;5075720;28;20043;-84
2022/07/20 07:18:42;;;;;;;2.60;2.30;;;18.50;95.00;;;;;;5072583;28;20032;-82
2022/07/20 07:21:08;;;;;;;3.70;2.17;;;19.10;94.50;;;;;;5085456;28;20063;-83
2022/07/20 07:23:34;;;;;;;4.28;2.00;;;19.80;93.30;;;;;;5089311;28;20035;-82
2022/07/20 07:25:59;;;;;;;3.33;2.83;;;20.30;91.60;;;;;;5093194;28;20031;-83
2022/07/20 07:28:25;;;;;;;6.65;4.25;;;20.70;90.40;;;;;;5090083;28;20032;-82
2022/07/20 07:30:51;;;;;;;4.15;2.67;;;21.00;89.60;;;;;;5090289;28;20539;-84
2022/07/20 07:33:19;;;;;;;5.40;3.60;;;20.60;87.70;;;;;;5087264;28;20031;-83
2022/07/20 07:35:45;;;;;;;9.23;6.35;;;20.20;88.50;;;;;;5091973;28;20374;-82
2022/07/20 07:38:13;;;;;;;3.95;2.53;;;19.90;90.10;;;;;;5093935;28;20028;-83
2022/07/20 07:40:39;;;;;;;2.25;1.75;;;19.70;90.10;;;;;;5093044;28;20012;-85
2022/07/20 07:43:04;;;;;;;3.47;2.50;;;19.80;90.30;;;;;;5089117;28;20388;-83
2022/07/20 07:45:30;;;;;;;4.88;3.17;;;20.00;90.00;;;;;;5087220;28;20051;-84
2022/07/20 07:47:56;;;;;;;3.30;2.33;;;21.60;89.20;;;;;;5089890;28;20020;-85
2022/07/20 07:50:22;;;;;;;3.08;2.08;;;24.70;80.00;;;;;;5086935;28;20472;-84
2022/07/20 07:52:48;;;;;;;6.70;2.47;;;28.10;68.30;;;;;;5091171;28;20107;-83
2022/07/20 07:55:14;;;;;;;3.42;1.77;;;29.10;58.60;;;;;;5090691;28;20031;-84
2022/07/20 07:57:41;;;;;;;2.83;1.73;;;28.30;57.40;;;;;;5084603;28;20080;-85
2022/07/20 08:00:08;;;;;;;4.85;1.40;;;27.00;58.60;;;;;;5085296;28;20039;-84
2022/07/20 08:02:35;;;;;;;3.00;1.40;;;25.70;60.00;;;;;;5089273;28;20084;-83
2022/07/20 08:05:00;;;;;;;;;;;24.60;62.30;;;;;;5092036;28;20075;-85
2022/07/20 08:07:26;;;;;;;2.85;1.90;;;23.80;65.60;;;;;;5092910;28;20392;-85
2022/07/20 08:09:52;;;;;;;1.92;1.30;;;23.40;67.90;;;;;;5092573;28;20032;-85
2022/07/20 08:12:20;;;;;;;2.15;1.00;;;23.40;67.00;;;;;;5088857;28;20063;-84
2022/07/20 08:14:46;;;;;;;3.28;1.15;;;23.70;64.30;;;;;;5086797;28;20377;-84
2022/07/20 08:17:12;;;;;;;3.95;1.35;;;23.50;64.60;;;;;;5071552;28;20021;-84
2022/07/20 08:19:41;;;;;;;4.10;2.50;;;23.30;66.30;;;;;;5077445;28;20028;-86
2022/07/20 08:22:07;;;;;;;4.47;1.08;;;23.40;66.60;;;;;;5070659;28;20047;-83
2022/07/20 08:24:33;;;;;;;2.72;1.50;;;23.50;65.80;;;;;;5076619;28;20377;-85
2022/07/20 08:26:59;;;;;;;5.35;1.80;;;24.70;64.90;;;;;;5078385;28;20040;-84
2022/07/20 08:29:25;;;;;;;2.33;1.30;;;25.80;60.40;;;;;;5079301;28;20056;-84
2022/07/20 08:31:51;;;;;;;2.28;1.10;;;26.60;58.40;;;;;;5071653;28;20086;-84
2022/07/20 08:34:16;;;;;;;3.03;1.30;;;27.70;55.80;;;;;;5071859;28;20029;-84
2022/07/20 08:36:42;;;;;;;1.98;1.40;;;27.70;53.10;;;;;;5078183;28;20028;-84
2022/07/20 08:39:08;;;;;;;2.33;0.90;;;27.70;54.10;;;;;;5082501;28;20108;-85
2022/07/20 08:41:34;;;;;;;3.28;1.17;;;29.40;52.00;;;;;;5082205;28;20118;-84
2022/07/20 08:44:00;;;;;;;1.27;0.77;;;31.20;48.40;;;;;;5083600;28;20025;-83
2022/07/20 08:46:30;;;;;;;2.07;1.10;;;32.90;46.00;;;;;;5070080;28;20031;-84
2022/07/20 08:48:56;;;;;;;5.35;1.33;;;32.80;44.60;;;;;;5070915;28;20028;-84
2022/07/20 08:51:22;;;;;;;2.08;1.20;;;33.90;42.70;;;;;;5071419;28;20020;-84
2022/07/20 08:53:49;;;;;;;2.65;1.02;;;33.40;41.40;;;;;;5069785;28;20124;-85
2022/07/20 08:56:15;;;;;;;2.17;1.13;;;31.80;42.90;;;;;;5082201;28;20028;-84
2022/07/20 08:58:41;;;;;;;3.53;1.40;;;29.70;45.70;;;;;;5087928;28;20058;-84
2022/07/20 09:01:16;;;;;;;4.13;1.40;;;27.90;48.70;;;;;;5079934;28;20028;-84
2022/07/20 09:03:44;;;;;;;3.15;1.67;;;26.70;51.40;;;;;;5075344;28;20078;-83
2022/07/20 09:06:11;;;;;;;6.03;1.50;;;26.00;54.10;;;;;;5079512;28;20023;-83
2022/07/20 09:09:01;;;;;;;3.47;1.52;;;26.50;53.40;;;;;;5091186;28;20027;-84
2022/07/20 09:11:27;;;;;;;1.73;1.15;;;28.30;50.70;;;;;;5080691;28;20093;-83
2022/07/20 09:13:53;;;;;;;3.47;0.90;;;29.00;49.00;;;;;;5081840;28;20058;-85
2022/07/20 09:16:42;;;;;;;1.67;1.07;;;30.60;47.40;;;;;;5077125;28;20107;-83
2022/07/20 09:19:09;;;;;;;4.25;1.20;;;32.60;44.80;;;;;;5091283;28;20062;-84
2022/07/20 09:21:35;;;;;;;4.22;1.55;;;32.70;42.80;;;;;;5076828;28;20485;-83
2022/07/20 09:24:04;;;;;;;3.65;1.83;;;30.90;44.00;;;;;;5080745;28;20144;-84
2022/07/20 09:26:31;;;;;;;2.35;1.25;;;28.70;47.10;;;;;;5074691;28;20048;-84
2022/07/20 09:28:58;;;;;;;1.17;1.08;;;27.10;49.40;;;;;;5077700;28;20020;-83
2022/07/20 09:31:28;;;;;;;2.60;1.35;;;25.90;52.80;;;;;;5080894;28;20021;-83
2022/07/20 09:33:59;;;;;;;2.35;1.75;;;24.90;54.20;;;;;;5087031;28;20024;-84
2022/07/20 09:36:28;;;;;;;3.25;1.80;;;24.00;56.80;;;;;;5090204;28;20041;-82
2022/07/20 09:38:54;;;;;;;4.20;2.13;;;23.30;59.10;;;;;;5084630;28;20481;-82
2022/07/20 09:41:31;;;;;;;6.60;2.10;;;22.80;61.60;;;;;;5096296;28;20032;-84
2022/07/20 09:43:57;;;;;;;;;;;22.60;62.50;;;;;;5078928;28;20046;-85
2022/07/20 09:46:26;;;;;;;3.60;1.65;;;22.60;61.60;;;;;;5078753;28;19911;-86
2022/07/20 09:48:58;;;;;;;4.00;1.45;;;22.80;63.20;;;;;;5088275;28;20024;-83
2022/07/20 09:51:28;;;;;;;3.70;2.05;;;24.00;61.50;;;;;;5082239;28;20055;-84
2022/07/20 09:53:57;;;;;;;4.30;1.42;;;25.20;58.80;;;;;;5079841;28;20054;-84
2022/07/20 09:56:24;;;;;;;3.05;1.60;;;27.10;54.90;;;;;;5081701;28;20024;-84
2022/07/20 09:58:52;;;;;;;2.45;1.73;;;27.90;51.50;;;;;;5073726;28;20556;-82
2022/07/20 10:01:21;;;;;;;1.00;0.65;;;27.50;50.90;;;;;;5075282;28;20033;-84
2022/07/20 10:03:49;;;;;;;2.72;1.45;;;27.20;51.10;;;;;;5085693;28;20240;-84
2022/07/20 10:06:16;;;;;;;3.38;1.23;;;28.60;50.30;;;;;;5073368;28;20083;-83
2022/07/20 10:08:42;;;;;;;6.63;2.90;;;29.70;47.80;;;;;;5087830;28;20016;-84
2022/07/20 10:11:08;;;;;;;4.93;3.53;;;29.30;47.70;;;;;;5073640;28;20532;-83
2022/07/20 10:13:35;;;;;;;1.63;0.93;;;28.30;49.00;;;;;;5082990;28;20024;-85
2022/07/20 10:16:25;;;;;;;2.13;0.88;;;27.70;50.90;;;;;;5092581;28;20383;-84
2022/07/20 10:18:53;;;;;;;2.53;0.90;;;29.00;49.00;;;;;;5073508;28;20017;-85
2022/07/20 10:21:32;;;;;;;2.22;0.80;;;30.00;46.00;;;;;;5084352;28;20374;-85
2022/07/20 10:24:25;;;;;;;2.80;0.77;;;30.70;44.90;;;;;;5075555;28;20131;-82
2022/07/20 10:26:56;;;;;;;6.60;0.82;;;30.20;43.20;;;;;;5074985;28;20021;-83
2022/07/20 10:29:28;;;;;;;1.33;0.70;;;29.30;44.00;;;;;;5075296;28;20039;-83
2022/07/20 10:31:59;;;;;;;0.98;0.70;;;28.20;44.70;;;;;;5082871;28;20481;-83
2022/07/20 10:34:40;;;;;;;1.65;0.90;;;27.60;45.90;;;;;;5075767;28;20396;-84
2022/07/20 10:37:38;;;;;;;3.03;0.95;;;27.10;46.40;;;;;;5082581;28;20086;-83
2022/07/20 10:40:14;;;;;;;1.63;0.65;;;26.20;47.60;;;;;;5083816;28;20028;-87
2022/07/20 10:42:47;;;;;;;1.20;0.77;;;25.40;49.20;;;;;;5083664;28;20500;-85
2022/07/20 10:45:19;;;;;;;2.50;1.10;;;24.80;49.90;;;;;;5073860;28;20143;-82
2022/07/20 10:47:58;;;;;;;2.00;1.25;;;24.10;51.50;;;;;;5072169;28;20373;-84
2022/07/20 10:50:29;;;;;;;2.97;1.05;;;23.40;53.30;;;;;;5074097;28;20017;-83
2022/07/20 10:53:24;;;;;;;1.15;0.60;;;22.90;54.80;;;;;;5085194;28;20058;-83
2022/07/20 10:55:52;;;;;;;1.65;0.77;;;22.40;53.80;;;;;;5083999;28;20497;-83
2022/07/20 10:58:24;;;;;;;3.70;0.95;;;22.00;55.10;;;;;;5073049;28;20025;-84
2022/07/20 11:00:54;;;;;;;5.13;1.35;;;21.70;55.70;;;;;;5080033;28;20028;-84
2022/07/20 11:03:30;;;;;;;1.20;0.50;;;21.40;55.70;;;;;;5093473;28;20050;-84
2022/07/20 11:06:02;;;;;;;3.70;1.03;;;21.30;55.40;;;;;;5090781;28;20117;-82
2022/07/20 11:08:28;;;;;;;2.10;0.50;;;21.30;55.90;;;;;;5074706;28;20135;-83
2022/07/20 11:10:55;;;;;;;1.48;0.63;;;21.30;55.50;;;;;;5072879;28;20075;-84
2022/07/20 11:13:33;;;;;;;5.40;2.38;;;21.30;56.60;;;;;;5089706;28;20069;-84
2022/07/20 11:16:01;;;;;;;2.30;0.70;;;21.40;55.60;;;;;;5081706;28;20033;-86
2022/07/20 11:18:30;;;;;;;2.08;1.15;;;21.40;55.80;;;;;;5072775;28;20046;-84
2022/07/20 11:21:06;;;;;;;3.20;1.05;;;21.40;53.80;;;;;;5072176;28;20104;-83
2022/07/20 11:23:50;;;;;;;0.90;0.73;;;21.50;53.90;;;;;;5078107;28;20020;-83
2022/07/20 11:26:19;;;;;;;2.50;1.00;;;21.50;54.20;;;;;;5076632;28;20047;-84
2022/07/20 11:28:56;;;;;;;3.05;1.10;;;21.50;54.60;;;;;;5072745;28;20032;-84
2022/07/20 11:31:23;;;;;;;;;;;21.60;55.00;;;;;;5074886;28;20024;-85
2022/07/20 11:33:51;;;;;;;1.45;0.63;;;21.60;54.60;;;;;;5079116;28;19963;-83
2022/07/20 11:36:24;;;;;;;3.45;1.35;;;21.60;55.10;;;;;;5092285;28;20031;-84
2022/07/20 11:38:59;;;;;;;2.85;1.30;;;21.70;55.30;;;;;;5084833;28;20143;-83
2022/07/20 11:41:35;;;;;;;2.15;1.30;;;22.00;54.90;;;;;;5085812;28;20024;-83
2022/07/20 11:44:04;;;;;;;7.27;1.93;;;22.00;54.50;;;;;;5080875;28;20059;-85
2022/07/20 11:46:42;;;;;;;4.03;2.13;;;22.20;55.90;;;;;;5077778;28;20033;-82
2022/07/20 11:49:13;;;;;;;5.55;1.80;;;22.30;55.90;;;;;;5083856;28;20093;-82
2022/07/20 11:51:43;;;;;;;3.17;1.50;;;22.40;55.70;;;;;;5073062;28;20017;-85
2022/07/20 11:54:09;;;;;;;2.08;1.17;;;22.40;56.90;;;;;;5092076;28;20028;-84
2022/07/20 11:56:37;;;;;;;2.33;1.27;;;22.30;55.50;;;;;;5079557;28;20016;-84
2022/07/20 11:59:07;;;;;;;4.20;1.17;;;22.20;55.50;;;;;;5072050;28;20032;-83
2022/07/20 12:01:36;;;;;;;2.75;1.10;;;22.10;55.60;;;;;;5074014;28;20386;-84
2022/07/20 12:04:13;;;;;;;3.60;1.15;;;22.00;56.40;;;;;;5075428;28;20017;-84
2022/07/20 12:06:41;;;;;;;2.05;1.20;;;22.00;56.90;;;;;;5080091;28;20525;-88
2022/07/20 12:09:15;;;;;;;7.25;2.42;;;21.90;57.70;;;;;;5083184;28;20124;-82
2022/07/20 12:12:05;;;;;;;1.70;1.17;;;22.00;58.70;;;;;;5095398;28;20044;-83
2022/07/20 12:14:41;;;;;;;3.55;1.23;;;22.00;57.60;;;;;;5087958;28;20025;-83
2022/07/20 12:17:19;;;;;;;3.80;1.50;;;22.00;58.80;;;;;;5072342;28;20070;-83
2022/07/20 12:19:46;;;;;;;6.60;4.13;;;21.90;59.60;;;;;;5072401;28;20382;-83
2022/07/20 12:22:17;;;;;;;13.90;9.68;;;21.90;60.10;;;;;;5072795;28;20375;-85
2022/07/20 12:24:57;;;;;;;7.43;1.77;;;21.80;60.60;;;;;;5073773;28;20020;-83
2022/07/20 12:27:34;;;;;;;4.03;1.42;;;21.70;59.80;;;;;;5086542;28;20075;-84
2022/07/20 12:30:20;;;;;;;1.90;0.90;;;21.70;59.80;;;;;;5072726;28;20021;-84
2022/07/20 12:32:46;;;;;;;4.70;1.55;;;21.70;58.70;;;;;;5071783;28;20384;-85
2022/07/20 12:35:12;;;;;;;2.53;1.08;;;21.80;59.10;;;;;;5071389;28;20025;-84
2022/07/20 12:37:53;;;;;;;6.68;1.13;;;21.90;57.50;;;;;;5073469;28;20386;-85
2022/07/20 12:40:44;;;;;;;3.70;1.02;;;22.00;56.50;;;;;;5071864;28;20065;-83
2022/07/20 12:43:40;;;;;;;1.95;0.80;;;22.00;56.40;;;;;;5071184;28;20055;-85
2022/07/20 12:46:13;;;;;;;2.92;0.77;;;21.90;55.90;;;;;;5071727;28;20024;-85
2022/07/20 12:48:50;;;;;;;3.50;1.05;;;21.70;56.20;;;;;;5071354;28;20582;-83
2022/07/20 12:51:16;;;;;;;3.13;0.90;;;21.60;56.70;;;;;;5082062;28;20016;-83
2022/07/20 12:53:44;;;;;;;3.28;0.93;;;21.50;56.60;;;;;;5077004;28;20024;-82
2022/07/20 12:56:11;;;;;;;1.90;0.90;;;21.50;55.70;;;;;;5089994;28;20401;-86